sensor_id;sensor_type;location;lat;lon;timestamp;P1;durP1;ratioP1;P2;durP2;ratioP2
13897;SDS011;7019;50.766;4.474;2023-11-21T00:01:58;55.43;;;19.93;;
13897;SDS011;7019;50.766;4.474;2023-11-21T00:04:25;61.80;;;21.00;;
13897;SDS011;7019;50.766;4.474;2023-11-21T00:06:54;60.33;;;21.70;;
13897;SDS011;7019;50.766;4.474;2023-11-21T00:09:21;53.80;;;20.70;;
13897;SDS011;7019;50.766;4.474;2023-11-21T00:11:48;62.43;;;20.77;;
13897;SDS011;7019;50.766;4.474;2023-11-21T00:14:15;86.27;;;22.23;;
13897;SDS011;7019;50.766;4.474;2023-11-21T00:16:42;55.30;;;19.70;;
13897;SDS011;7019;50.766;4.474;2023-11-21T00:19:12;55.37;;;20.10;;
13897;SDS011;7019;50.766;4.474;2023-11-21T00:21:39;56.27;;;19.80;;
13897;SDS011;7019;50.766;4.474;2023-11-21T00:24:09;52.87;;;18.93;;
13897;SDS011;7019;50.766;4.474;2023-11-21T00:26:38;71.83;;;22.37;;
13897;SDS011;7019;50.766;4.474;2023-11-21T00:29:05;103.40;;;26.37;;
13897;SDS011;7019;50.766;4.474;2023-11-21T00:31:33;64.83;;;20.50;;
13897;SDS011;7019;50.766;4.474;2023-11-21T00:34:02;68.50;;;22.40;;
13897;SDS011;7019;50.766;4.474;2023-11-21T00:36:31;61.57;;;20.23;;
13897;SDS011;7019;50.766;4.474;2023-11-21T00:38:58;65.00;;;22.27;;
13897;SDS011;7019;50.766;4.474;2023-11-21T00:41:27;66.60;;;21.73;;
13897;SDS011;7019;50.766;4.474;2023-11-21T00:43:54;80.43;;;21.57;;
13897;SDS011;7019;50.766;4.474;2023-11-21T00:46:21;74.30;;;22.40;;
13897;SDS011;7019;50.766;4.474;2023-11-21T00:48:49;98.10;;;25.70;;
13897;SDS011;7019;50.766;4.474;2023-11-21T00:51:16;72.37;;;22.57;;
13897;SDS011;7019;50.766;4.474;2023-11-21T00:53:44;126.03;;;25.07;;
13897;SDS011;7019;50.766;4.474;2023-11-21T00:56:11;71.77;;;21.90;;
13897;SDS011;7019;50.766;4.474;2023-11-21T00:58:39;63.90;;;21.37;;
13897;SDS011;7019;50.766;4.474;2023-11-21T01:01:07;129.23;;;24.00;;
13897;SDS011;7019;50.766;4.474;2023-11-21T01:03:34;64.93;;;22.17;;
13897;SDS011;7019;50.766;4.474;2023-11-21T01:06:02;74.47;;;21.87;;
13897;SDS011;7019;50.766;4.474;2023-11-21T01:08:29;75.67;;;22.83;;
13897;SDS011;7019;50.766;4.474;2023-11-21T01:10:58;58.00;;;20.00;;
13897;SDS011;7019;50.766;4.474;2023-11-21T01:13:25;54.97;;;20.60;;
13897;SDS011;7019;50.766;4.474;2023-11-21T01:15:54;54.93;;;20.47;;
13897;SDS011;7019;50.766;4.474;2023-11-21T01:18:22;60.93;;;20.63;;
13897;SDS011;7019;50.766;4.474;2023-11-21T01:20:51;81.13;;;23.67;;
13897;SDS011;7019;50.766;4.474;2023-11-21T01:23:19;82.70;;;23.63;;
13897;SDS011;7019;50.766;4.474;2023-11-21T01:25:48;92.27;;;22.83;;
13897;SDS011;7019;50.766;4.474;2023-11-21T01:28:18;63.47;;;22.77;;
13897;SDS011;7019;50.766;4.474;2023-11-21T01:30:45;57.63;;;20.20;;
13897;SDS011;7019;50.766;4.474;2023-11-21T01:33:14;68.00;;;23.83;;
13897;SDS011;7019;50.766;4.474;2023-11-21T01:35:41;65.50;;;21.40;;
13897;SDS011;7019;50.766;4.474;2023-11-21T01:38:08;65.90;;;22.37;;
13897;SDS011;7019;50.766;4.474;2023-11-21T01:40:35;58.63;;;21.17;;
13897;SDS011;7019;50.766;4.474;2023-11-21T01:43:02;68.13;;;22.00;;
13897;SDS011;7019;50.766;4.474;2023-11-21T01:45:31;81.00;;;25.47;;
13897;SDS011;7019;50.766;4.474;2023-11-21T01:47:58;83.73;;;24.57;;
13897;SDS011;7019;50.766;4.474;2023-11-21T01:50:27;118.63;;;26.73;;
13897;SDS011;7019;50.766;4.474;2023-11-21T01:52:54;58.83;;;21.83;;
13897;SDS011;7019;50.766;4.474;2023-11-21T01:55:22;66.23;;;23.23;;
13897;SDS011;7019;50.766;4.474;2023-11-21T01:57:49;59.73;;;22.47;;
13897;SDS011;7019;50.766;4.474;2023-11-21T02:00:17;67.00;;;21.90;;
13897;SDS011;7019;50.766;4.474;2023-11-21T02:02:45;61.83;;;21.83;;
13897;SDS011;7019;50.766;4.474;2023-11-21T02:05:14;100.27;;;26.27;;
13897;SDS011;7019;50.766;4.474;2023-11-21T02:07:42;62.07;;;22.53;;
13897;SDS011;7019;50.766;4.474;2023-11-21T02:10:10;66.50;;;23.37;;
13897;SDS011;7019;50.766;4.474;2023-11-21T02:12:39;63.77;;;22.40;;
13897;SDS011;7019;50.766;4.474;2023-11-21T02:15:07;61.70;;;22.37;;
13897;SDS011;7019;50.766;4.474;2023-11-21T02:17:40;66.20;;;22.70;;
13897;SDS011;7019;50.766;4.474;2023-11-21T02:20:10;67.30;;;22.57;;
13897;SDS011;7019;50.766;4.474;2023-11-21T02:22:40;93.23;;;25.87;;
13897;SDS011;7019;50.766;4.474;2023-11-21T02:25:09;84.50;;;25.27;;
13897;SDS011;7019;50.766;4.474;2023-11-21T02:27:37;78.43;;;26.33;;
13897;SDS011;7019;50.766;4.474;2023-11-21T02:30:04;68.67;;;24.03;;
13897;SDS011;7019;50.766;4.474;2023-11-21T02:32:33;63.23;;;23.17;;
13897;SDS011;7019;50.766;4.474;2023-11-21T02:35:00;67.80;;;22.63;;
13897;SDS011;7019;50.766;4.474;2023-11-21T02:37:32;55.27;;;21.07;;
13897;SDS011;7019;50.766;4.474;2023-11-21T02:40:00;67.13;;;22.33;;
13897;SDS011;7019;50.766;4.474;2023-11-21T02:42:32;53.57;;;20.00;;
13897;SDS011;7019;50.766;4.474;2023-11-21T02:44:59;71.50;;;22.17;;
13897;SDS011;7019;50.766;4.474;2023-11-21T02:47:26;73.80;;;23.30;;
13897;SDS011;7019;50.766;4.474;2023-11-21T02:49:53;74.53;;;21.20;;
13897;SDS011;7019;50.766;4.474;2023-11-21T02:52:21;77.77;;;21.70;;
13897;SDS011;7019;50.766;4.474;2023-11-21T02:54:48;56.60;;;20.53;;
13897;SDS011;7019;50.766;4.474;2023-11-21T02:57:16;93.50;;;23.97;;
13897;SDS011;7019;50.766;4.474;2023-11-21T02:59:45;56.83;;;20.33;;
13897;SDS011;7019;50.766;4.474;2023-11-21T03:02:12;51.03;;;20.97;;
13897;SDS011;7019;50.766;4.474;2023-11-21T03:04:39;60.33;;;22.30;;
13897;SDS011;7019;50.766;4.474;2023-11-21T03:07:07;58.30;;;21.33;;
13897;SDS011;7019;50.766;4.474;2023-11-21T03:09:35;50.63;;;22.23;;
13897;SDS011;7019;50.766;4.474;2023-11-21T03:12:02;47.57;;;20.30;;
13897;SDS011;7019;50.766;4.474;2023-11-21T03:14:29;57.93;;;21.30;;
13897;SDS011;7019;50.766;4.474;2023-11-21T03:16:58;61.47;;;21.87;;
13897;SDS011;7019;50.766;4.474;2023-11-21T03:19:25;67.23;;;22.60;;
13897;SDS011;7019;50.766;4.474;2023-11-21T03:21:52;52.73;;;20.53;;
13897;SDS011;7019;50.766;4.474;2023-11-21T03:24:19;59.03;;;21.23;;
13897;SDS011;7019;50.766;4.474;2023-11-21T03:26:47;80.17;;;23.70;;
13897;SDS011;7019;50.766;4.474;2023-11-21T03:29:16;63.80;;;22.13;;
13897;SDS011;7019;50.766;4.474;2023-11-21T03:31:43;68.20;;;21.27;;
13897;SDS011;7019;50.766;4.474;2023-11-21T03:34:14;63.70;;;20.63;;
13897;SDS011;7019;50.766;4.474;2023-11-21T03:36:46;56.87;;;20.93;;
13897;SDS011;7019;50.766;4.474;2023-11-21T03:39:13;63.33;;;21.77;;
13897;SDS011;7019;50.766;4.474;2023-11-21T03:41:40;49.53;;;19.77;;
13897;SDS011;7019;50.766;4.474;2023-11-21T03:44:07;78.93;;;21.90;;
13897;SDS011;7019;50.766;4.474;2023-11-21T03:46:34;62.13;;;21.40;;
13897;SDS011;7019;50.766;4.474;2023-11-21T03:49:01;49.63;;;19.07;;
13897;SDS011;7019;50.766;4.474;2023-11-21T03:51:30;47.67;;;18.93;;
13897;SDS011;7019;50.766;4.474;2023-11-21T03:53:57;41.53;;;18.93;;
13897;SDS011;7019;50.766;4.474;2023-11-21T03:56:24;51.57;;;19.30;;
13897;SDS011;7019;50.766;4.474;2023-11-21T03:58:51;66.20;;;21.37;;
13897;SDS011;7019;50.766;4.474;2023-11-21T04:01:21;49.43;;;19.57;;
13897;SDS011;7019;50.766;4.474;2023-11-21T04:03:48;42.07;;;17.83;;
13897;SDS011;7019;50.766;4.474;2023-11-21T04:06:15;46.67;;;17.43;;
13897;SDS011;7019;50.766;4.474;2023-11-21T04:08:45;46.97;;;19.70;;
13897;SDS011;7019;50.766;4.474;2023-11-21T04:11:12;47.23;;;18.27;;
13897;SDS011;7019;50.766;4.474;2023-11-21T04:13:39;70.63;;;22.40;;
13897;SDS011;7019;50.766;4.474;2023-11-21T04:16:07;51.07;;;20.67;;
13897;SDS011;7019;50.766;4.474;2023-11-21T04:18:35;42.27;;;18.97;;
13897;SDS011;7019;50.766;4.474;2023-11-21T04:21:03;44.83;;;18.53;;
13897;SDS011;7019;50.766;4.474;2023-11-21T04:23:30;45.43;;;19.00;;
13897;SDS011;7019;50.766;4.474;2023-11-21T04:25:59;107.83;;;22.53;;
13897;SDS011;7019;50.766;4.474;2023-11-21T04:28:27;61.40;;;19.30;;
13897;SDS011;7019;50.766;4.474;2023-11-21T04:30:54;69.40;;;23.50;;
13897;SDS011;7019;50.766;4.474;2023-11-21T04:33:21;39.23;;;16.97;;
13897;SDS011;7019;50.766;4.474;2023-11-21T04:35:48;42.17;;;18.03;;
13897;SDS011;7019;50.766;4.474;2023-11-21T04:38:15;47.30;;;19.23;;
13897;SDS011;7019;50.766;4.474;2023-11-21T04:40:42;50.37;;;18.63;;
13897;SDS011;7019;50.766;4.474;2023-11-21T04:43:11;45.47;;;19.20;;
13897;SDS011;7019;50.766;4.474;2023-11-21T04:45:38;44.50;;;18.63;;
13897;SDS011;7019;50.766;4.474;2023-11-21T04:48:06;45.70;;;18.50;;
13897;SDS011;7019;50.766;4.474;2023-11-21T04:50:34;49.37;;;19.03;;
13897;SDS011;7019;50.766;4.474;2023-11-21T04:53:01;42.47;;;17.90;;
13897;SDS011;7019;50.766;4.474;2023-11-21T04:55:28;44.07;;;16.83;;
13897;SDS011;7019;50.766;4.474;2023-11-21T04:57:55;40.37;;;18.03;;
13897;SDS011;7019;50.766;4.474;2023-11-21T05:00:24;49.30;;;19.20;;
13897;SDS011;7019;50.766;4.474;2023-11-21T05:02:51;64.27;;;20.97;;
13897;SDS011;7019;50.766;4.474;2023-11-21T05:05:18;41.10;;;17.93;;
13897;SDS011;7019;50.766;4.474;2023-11-21T05:07:45;42.47;;;18.03;;
13897;SDS011;7019;50.766;4.474;2023-11-21T05:10:14;48.73;;;20.53;;
13897;SDS011;7019;50.766;4.474;2023-11-21T05:12:41;49.13;;;20.10;;
13897;SDS011;7019;50.766;4.474;2023-11-21T05:15:08;54.20;;;20.80;;
13897;SDS011;7019;50.766;4.474;2023-11-21T05:17:37;47.77;;;19.13;;
13897;SDS011;7019;50.766;4.474;2023-11-21T05:20:07;60.53;;;21.83;;
13897;SDS011;7019;50.766;4.474;2023-11-21T05:22:35;51.37;;;19.37;;
13897;SDS011;7019;50.766;4.474;2023-11-21T05:25:02;46.20;;;20.23;;
13897;SDS011;7019;50.766;4.474;2023-11-21T05:27:30;57.43;;;20.33;;
13897;SDS011;7019;50.766;4.474;2023-11-21T05:29:57;49.00;;;19.87;;
13897;SDS011;7019;50.766;4.474;2023-11-21T05:32:24;54.13;;;22.20;;
13897;SDS011;7019;50.766;4.474;2023-11-21T05:34:53;52.93;;;21.87;;
13897;SDS011;7019;50.766;4.474;2023-11-21T05:37:20;53.17;;;21.40;;
13897;SDS011;7019;50.766;4.474;2023-11-21T05:39:48;46.53;;;19.70;;
13897;SDS011;7019;50.766;4.474;2023-11-21T05:42:15;55.97;;;22.40;;
13897;SDS011;7019;50.766;4.474;2023-11-21T05:44:42;56.73;;;21.93;;
13897;SDS011;7019;50.766;4.474;2023-11-21T05:47:10;52.30;;;21.20;;
13897;SDS011;7019;50.766;4.474;2023-11-21T05:49:38;67.97;;;24.23;;
13897;SDS011;7019;50.766;4.474;2023-11-21T05:52:07;44.33;;;20.90;;
13897;SDS011;7019;50.766;4.474;2023-11-21T05:54:35;59.27;;;23.67;;
13897;SDS011;7019;50.766;4.474;2023-11-21T05:57:02;85.37;;;25.40;;
13897;SDS011;7019;50.766;4.474;2023-11-21T05:59:29;57.97;;;20.43;;
13897;SDS011;7019;50.766;4.474;2023-11-21T06:01:57;52.10;;;22.23;;
13897;SDS011;7019;50.766;4.474;2023-11-21T06:04:24;60.27;;;22.00;;
13897;SDS011;7019;50.766;4.474;2023-11-21T06:06:51;53.70;;;22.03;;
13897;SDS011;7019;50.766;4.474;2023-11-21T06:09:20;51.17;;;22.47;;
13897;SDS011;7019;50.766;4.474;2023-11-21T06:11:47;56.53;;;23.33;;
13897;SDS011;7019;50.766;4.474;2023-11-21T06:14:14;66.30;;;23.73;;
13897;SDS011;7019;50.766;4.474;2023-11-21T06:16:43;52.47;;;21.23;;
13897;SDS011;7019;50.766;4.474;2023-11-21T06:19:10;49.20;;;21.70;;
13897;SDS011;7019;50.766;4.474;2023-11-21T06:21:38;52.67;;;22.43;;
13897;SDS011;7019;50.766;4.474;2023-11-21T06:24:05;63.30;;;22.73;;
13897;SDS011;7019;50.766;4.474;2023-11-21T06:26:34;90.23;;;26.97;;
13897;SDS011;7019;50.766;4.474;2023-11-21T06:29:01;55.60;;;26.17;;
13897;SDS011;7019;50.766;4.474;2023-11-21T06:31:29;63.13;;;25.60;;
13897;SDS011;7019;50.766;4.474;2023-11-21T06:33:57;44.90;;;22.20;;
13897;SDS011;7019;50.766;4.474;2023-11-21T06:36:25;53.70;;;24.73;;
13897;SDS011;7019;50.766;4.474;2023-11-21T06:38:52;63.23;;;26.13;;
13897;SDS011;7019;50.766;4.474;2023-11-21T06:41:20;49.53;;;24.27;;
13897;SDS011;7019;50.766;4.474;2023-11-21T06:43:48;51.77;;;23.53;;
13897;SDS011;7019;50.766;4.474;2023-11-21T06:46:15;47.83;;;23.07;;
13897;SDS011;7019;50.766;4.474;2023-11-21T06:48:44;49.67;;;22.33;;
13897;SDS011;7019;50.766;4.474;2023-11-21T06:51:11;46.97;;;23.30;;
13897;SDS011;7019;50.766;4.474;2023-11-21T06:53:39;50.30;;;23.20;;
13897;SDS011;7019;50.766;4.474;2023-11-21T06:56:14;45.03;;;21.80;;
13897;SDS011;7019;50.766;4.474;2023-11-21T06:58:42;44.20;;;21.50;;
13897;SDS011;7019;50.766;4.474;2023-11-21T07:01:12;54.90;;;24.63;;
13897;SDS011;7019;50.766;4.474;2023-11-21T07:03:40;46.90;;;22.07;;
13897;SDS011;7019;50.766;4.474;2023-11-21T07:06:07;47.53;;;22.03;;
13897;SDS011;7019;50.766;4.474;2023-11-21T07:08:35;50.07;;;22.80;;
13897;SDS011;7019;50.766;4.474;2023-11-21T07:11:02;57.53;;;25.10;;
13897;SDS011;7019;50.766;4.474;2023-11-21T07:13:29;48.10;;;22.43;;
13897;SDS011;7019;50.766;4.474;2023-11-21T07:15:57;49.27;;;23.43;;
13897;SDS011;7019;50.766;4.474;2023-11-21T07:18:26;67.57;;;28.40;;
13897;SDS011;7019;50.766;4.474;2023-11-21T07:20:53;51.17;;;25.13;;
13897;SDS011;7019;50.766;4.474;2023-11-21T07:23:20;57.40;;;25.03;;
13897;SDS011;7019;50.766;4.474;2023-11-21T07:25:48;53.07;;;25.67;;
13897;SDS011;7019;50.766;4.474;2023-11-21T07:28:15;54.30;;;24.63;;
13897;SDS011;7019;50.766;4.474;2023-11-21T07:30:42;52.60;;;23.43;;
13897;SDS011;7019;50.766;4.474;2023-11-21T07:33:09;53.57;;;24.00;;
13897;SDS011;7019;50.766;4.474;2023-11-21T07:35:37;95.27;;;29.77;;
13897;SDS011;7019;50.766;4.474;2023-11-21T07:38:05;53.23;;;23.83;;
13897;SDS011;7019;50.766;4.474;2023-11-21T07:40:32;52.50;;;24.73;;
13897;SDS011;7019;50.766;4.474;2023-11-21T07:42:58;46.17;;;23.73;;
13897;SDS011;7019;50.766;4.474;2023-11-21T07:45:25;44.13;;;22.80;;
13897;SDS011;7019;50.766;4.474;2023-11-21T07:47:53;48.17;;;24.67;;
13897;SDS011;7019;50.766;4.474;2023-11-21T07:50:21;55.63;;;25.07;;
13897;SDS011;7019;50.766;4.474;2023-11-21T07:52:49;57.17;;;27.07;;
13897;SDS011;7019;50.766;4.474;2023-11-21T07:55:16;56.10;;;25.53;;
13897;SDS011;7019;50.766;4.474;2023-11-21T07:57:44;66.60;;;26.60;;
13897;SDS011;7019;50.766;4.474;2023-11-21T08:00:11;50.93;;;23.73;;
13897;SDS011;7019;50.766;4.474;2023-11-21T08:02:40;51.83;;;25.20;;
13897;SDS011;7019;50.766;4.474;2023-11-21T08:05:10;49.13;;;24.20;;
13897;SDS011;7019;50.766;4.474;2023-11-21T08:07:38;63.13;;;27.00;;
13897;SDS011;7019;50.766;4.474;2023-11-21T08:10:07;46.00;;;23.13;;
13897;SDS011;7019;50.766;4.474;2023-11-21T08:12:36;53.07;;;24.30;;
13897;SDS011;7019;50.766;4.474;2023-11-21T08:15:04;60.13;;;26.30;;
13897;SDS011;7019;50.766;4.474;2023-11-21T08:17:33;48.10;;;24.20;;
13897;SDS011;7019;50.766;4.474;2023-11-21T08:20:01;53.30;;;25.13;;
13897;SDS011;7019;50.766;4.474;2023-11-21T08:22:28;49.33;;;25.87;;
13897;SDS011;7019;50.766;4.474;2023-11-21T08:24:55;60.13;;;24.13;;
13897;SDS011;7019;50.766;4.474;2023-11-21T08:27:24;57.37;;;24.00;;
13897;SDS011;7019;50.766;4.474;2023-11-21T08:29:51;44.33;;;23.53;;
13897;SDS011;7019;50.766;4.474;2023-11-21T08:32:18;53.20;;;24.40;;
13897;SDS011;7019;50.766;4.474;2023-11-21T08:34:45;59.07;;;24.47;;
13897;SDS011;7019;50.766;4.474;2023-11-21T08:37:15;47.50;;;23.00;;
13897;SDS011;7019;50.766;4.474;2023-11-21T08:39:43;57.90;;;24.80;;
13897;SDS011;7019;50.766;4.474;2023-11-21T08:42:10;61.20;;;25.60;;
13897;SDS011;7019;50.766;4.474;2023-11-21T08:44:39;46.30;;;24.87;;
13897;SDS011;7019;50.766;4.474;2023-11-21T08:47:06;47.27;;;22.60;;
13897;SDS011;7019;50.766;4.474;2023-11-21T08:49:33;63.13;;;24.63;;
13897;SDS011;7019;50.766;4.474;2023-11-21T08:52:00;47.80;;;22.77;;
13897;SDS011;7019;50.766;4.474;2023-11-21T08:54:27;49.43;;;22.87;;
13897;SDS011;7019;50.766;4.474;2023-11-21T08:56:55;47.90;;;22.17;;
13897;SDS011;7019;50.766;4.474;2023-11-21T08:59:23;86.67;;;25.57;;
13897;SDS011;7019;50.766;4.474;2023-11-21T09:01:52;49.27;;;22.77;;
13897;SDS011;7019;50.766;4.474;2023-11-21T09:04:19;47.70;;;23.90;;
13897;SDS011;7019;50.766;4.474;2023-11-21T09:06:46;50.23;;;23.47;;
13897;SDS011;7019;50.766;4.474;2023-11-21T09:09:14;49.30;;;21.40;;
13897;SDS011;7019;50.766;4.474;2023-11-21T09:11:41;53.80;;;22.83;;
13897;SDS011;7019;50.766;4.474;2023-11-21T09:14:09;60.50;;;22.00;;
13897;SDS011;7019;50.766;4.474;2023-11-21T09:16:38;51.87;;;22.27;;
13897;SDS011;7019;50.766;4.474;2023-11-21T09:19:06;45.47;;;22.07;;
13897;SDS011;7019;50.766;4.474;2023-11-21T09:21:33;62.67;;;22.30;;
13897;SDS011;7019;50.766;4.474;2023-11-21T09:24:01;51.37;;;21.43;;
13897;SDS011;7019;50.766;4.474;2023-11-21T09:26:28;54.87;;;23.17;;
13897;SDS011;7019;50.766;4.474;2023-11-21T09:28:55;54.13;;;22.23;;
13897;SDS011;7019;50.766;4.474;2023-11-21T09:31:22;56.00;;;22.23;;
13897;SDS011;7019;50.766;4.474;2023-11-21T09:33:51;58.13;;;22.37;;
13897;SDS011;7019;50.766;4.474;2023-11-21T09:36:19;68.20;;;23.77;;
13897;SDS011;7019;50.766;4.474;2023-11-21T09:38:52;72.23;;;23.57;;
13897;SDS011;7019;50.766;4.474;2023-11-21T09:41:21;71.87;;;24.00;;
13897;SDS011;7019;50.766;4.474;2023-11-21T09:43:55;58.67;;;22.53;;
13897;SDS011;7019;50.766;4.474;2023-11-21T09:46:25;56.87;;;22.27;;
13897;SDS011;7019;50.766;4.474;2023-11-21T09:48:55;54.20;;;21.00;;
13897;SDS011;7019;50.766;4.474;2023-11-21T09:51:28;67.67;;;23.17;;
13897;SDS011;7019;50.766;4.474;2023-11-21T09:53:58;69.17;;;23.40;;
13897;SDS011;7019;50.766;4.474;2023-11-21T09:56:32;61.00;;;23.37;;
13897;SDS011;7019;50.766;4.474;2023-11-21T09:58:59;59.07;;;23.07;;
13897;SDS011;7019;50.766;4.474;2023-11-21T10:01:31;57.50;;;22.30;;
13897;SDS011;7019;50.766;4.474;2023-11-21T10:03:59;48.33;;;20.57;;
13897;SDS011;7019;50.766;4.474;2023-11-21T10:06:28;57.10;;;20.17;;
13897;SDS011;7019;50.766;4.474;2023-11-21T10:08:58;44.87;;;19.93;;
13897;SDS011;7019;50.766;4.474;2023-11-21T10:11:26;50.50;;;19.43;;
13897;SDS011;7019;50.766;4.474;2023-11-21T10:13:56;41.80;;;18.27;;
13897;SDS011;7019;50.766;4.474;2023-11-21T10:16:27;49.83;;;18.70;;
13897;SDS011;7019;50.766;4.474;2023-11-21T10:18:55;37.87;;;18.03;;
13897;SDS011;7019;50.766;4.474;2023-11-21T10:21:24;37.00;;;18.20;;
13897;SDS011;7019;50.766;4.474;2023-11-21T10:23:53;45.30;;;18.27;;
13897;SDS011;7019;50.766;4.474;2023-11-21T10:26:22;41.27;;;19.20;;
13897;SDS011;7019;50.766;4.474;2023-11-21T10:28:57;39.93;;;19.30;;
13897;SDS011;7019;50.766;4.474;2023-11-21T10:31:25;39.67;;;18.77;;
13897;SDS011;7019;50.766;4.474;2023-11-21T10:33:55;37.33;;;19.17;;
13897;SDS011;7019;50.766;4.474;2023-11-21T10:36:36;41.13;;;19.97;;
13897;SDS011;7019;50.766;4.474;2023-11-21T10:39:04;42.60;;;19.77;;
13897;SDS011;7019;50.766;4.474;2023-11-21T10:41:31;48.13;;;20.37;;
13897;SDS011;7019;50.766;4.474;2023-11-21T10:44:00;48.17;;;22.53;;
13897;SDS011;7019;50.766;4.474;2023-11-21T10:46:29;44.07;;;21.70;;
13897;SDS011;7019;50.766;4.474;2023-11-21T10:48:56;43.87;;;20.63;;
13897;SDS011;7019;50.766;4.474;2023-11-21T10:51:24;52.07;;;22.33;;
13897;SDS011;7019;50.766;4.474;2023-11-21T10:53:52;48.07;;;21.70;;
13897;SDS011;7019;50.766;4.474;2023-11-21T10:56:22;47.20;;;21.10;;
13897;SDS011;7019;50.766;4.474;2023-11-21T10:58:50;44.27;;;20.43;;
13897;SDS011;7019;50.766;4.474;2023-11-21T11:01:17;37.40;;;19.27;;
13897;SDS011;7019;50.766;4.474;2023-11-21T11:03:46;39.70;;;18.40;;
13897;SDS011;7019;50.766;4.474;2023-11-21T11:06:14;33.80;;;18.50;;
13897;SDS011;7019;50.766;4.474;2023-11-21T11:08:42;36.27;;;17.73;;
13897;SDS011;7019;50.766;4.474;2023-11-21T11:11:10;28.87;;;17.43;;
13897;SDS011;7019;50.766;4.474;2023-11-21T11:13:40;27.37;;;14.87;;
13897;SDS011;7019;50.766;4.474;2023-11-21T11:16:11;30.63;;;13.80;;
13897;SDS011;7019;50.766;4.474;2023-11-21T11:18:42;25.80;;;14.50;;
13897;SDS011;7019;50.766;4.474;2023-11-21T11:21:15;26.50;;;15.23;;
13897;SDS011;7019;50.766;4.474;2023-11-21T11:23:55;23.93;;;14.50;;
13897;SDS011;7019;50.766;4.474;2023-11-21T11:26:41;22.50;;;13.43;;
13897;SDS011;7019;50.766;4.474;2023-11-21T11:29:17;26.00;;;15.37;;
13897;SDS011;7019;50.766;4.474;2023-11-21T11:31:54;27.10;;;13.57;;
13897;SDS011;7019;50.766;4.474;2023-11-21T11:34:30;25.67;;;14.27;;
13897;SDS011;7019;50.766;4.474;2023-11-21T11:37:02;25.07;;;14.17;;
13897;SDS011;7019;50.766;4.474;2023-11-21T11:39:35;26.63;;;14.40;;
13897;SDS011;7019;50.766;4.474;2023-11-21T11:42:03;24.77;;;13.67;;
13897;SDS011;7019;50.766;4.474;2023-11-21T11:44:52;24.53;;;15.07;;
13897;SDS011;7019;50.766;4.474;2023-11-21T11:47:21;24.33;;;14.63;;
13897;SDS011;7019;50.766;4.474;2023-11-21T11:50:05;26.57;;;14.97;;
13897;SDS011;7019;50.766;4.474;2023-11-21T11:52:39;23.93;;;14.00;;
13897;SDS011;7019;50.766;4.474;2023-11-21T11:55:08;26.87;;;14.93;;
13897;SDS011;7019;50.766;4.474;2023-11-21T11:57:37;30.87;;;15.83;;
13897;SDS011;7019;50.766;4.474;2023-11-21T12:00:15;30.47;;;15.50;;
13897;SDS011;7019;50.766;4.474;2023-11-21T12:02:44;28.83;;;15.10;;
13897;SDS011;7019;50.766;4.474;2023-11-21T12:05:13;29.53;;;16.40;;
13897;SDS011;7019;50.766;4.474;2023-11-21T12:07:44;27.83;;;17.00;;
13897;SDS011;7019;50.766;4.474;2023-11-21T12:10:13;28.40;;;17.67;;
13897;SDS011;7019;50.766;4.474;2023-11-21T12:12:43;27.97;;;17.43;;
13897;SDS011;7019;50.766;4.474;2023-11-21T12:15:11;30.33;;;15.60;;
13897;SDS011;7019;50.766;4.474;2023-11-21T12:17:41;24.83;;;16.47;;
13897;SDS011;7019;50.766;4.474;2023-11-21T12:20:09;29.50;;;16.53;;
13897;SDS011;7019;50.766;4.474;2023-11-21T12:22:44;24.70;;;16.30;;
13897;SDS011;7019;50.766;4.474;2023-11-21T12:25:14;34.43;;;17.70;;
13897;SDS011;7019;50.766;4.474;2023-11-21T12:27:43;23.40;;;15.90;;
13897;SDS011;7019;50.766;4.474;2023-11-21T12:30:12;25.07;;;14.33;;
13897;SDS011;7019;50.766;4.474;2023-11-21T12:32:42;23.00;;;13.90;;
13897;SDS011;7019;50.766;4.474;2023-11-21T12:35:11;20.40;;;13.50;;
13897;SDS011;7019;50.766;4.474;2023-11-21T12:37:39;22.30;;;14.20;;
13897;SDS011;7019;50.766;4.474;2023-11-21T12:40:08;25.07;;;14.93;;
13897;SDS011;7019;50.766;4.474;2023-11-21T12:42:40;19.93;;;13.93;;
13897;SDS011;7019;50.766;4.474;2023-11-21T12:45:09;23.23;;;13.83;;
13897;SDS011;7019;50.766;4.474;2023-11-21T12:47:46;21.70;;;13.63;;
13897;SDS011;7019;50.766;4.474;2023-11-21T12:50:15;22.27;;;13.53;;
13897;SDS011;7019;50.766;4.474;2023-11-21T12:52:48;20.30;;;13.80;;
13897;SDS011;7019;50.766;4.474;2023-11-21T12:55:18;20.57;;;12.90;;
13897;SDS011;7019;50.766;4.474;2023-11-21T12:57:48;20.10;;;12.90;;
13897;SDS011;7019;50.766;4.474;2023-11-21T13:00:17;18.97;;;13.33;;
13897;SDS011;7019;50.766;4.474;2023-11-21T13:02:54;19.33;;;13.73;;
13897;SDS011;7019;50.766;4.474;2023-11-21T13:05:24;18.57;;;12.40;;
13897;SDS011;7019;50.766;4.474;2023-11-21T13:07:52;20.67;;;12.47;;
13897;SDS011;7019;50.766;4.474;2023-11-21T13:10:23;18.57;;;13.87;;
13897;SDS011;7019;50.766;4.474;2023-11-21T13:12:54;21.83;;;13.67;;
13897;SDS011;7019;50.766;4.474;2023-11-21T13:15:23;22.27;;;13.70;;
13897;SDS011;7019;50.766;4.474;2023-11-21T13:17:50;15.87;;;12.80;;
13897;SDS011;7019;50.766;4.474;2023-11-21T13:20:20;19.23;;;13.30;;
13897;SDS011;7019;50.766;4.474;2023-11-21T13:22:47;17.47;;;11.97;;
13897;SDS011;7019;50.766;4.474;2023-11-21T13:25:16;16.17;;;11.53;;
13897;SDS011;7019;50.766;4.474;2023-11-21T13:27:44;19.63;;;12.20;;
13897;SDS011;7019;50.766;4.474;2023-11-21T13:30:12;19.23;;;11.97;;
13897;SDS011;7019;50.766;4.474;2023-11-21T13:32:48;17.60;;;11.53;;
13897;SDS011;7019;50.766;4.474;2023-11-21T13:35:17;15.30;;;10.63;;
13897;SDS011;7019;50.766;4.474;2023-11-21T13:37:57;13.10;;;8.83;;
13897;SDS011;7019;50.766;4.474;2023-11-21T13:40:33;13.27;;;9.30;;
13897;SDS011;7019;50.766;4.474;2023-11-21T13:43:08;12.73;;;8.93;;
13897;SDS011;7019;50.766;4.474;2023-11-21T13:45:37;12.57;;;8.73;;
13897;SDS011;7019;50.766;4.474;2023-11-21T13:48:09;14.00;;;9.10;;
13897;SDS011;7019;50.766;4.474;2023-11-21T13:50:41;10.73;;;7.67;;
13897;SDS011;7019;50.766;4.474;2023-11-21T13:53:20;9.23;;;7.03;;
13897;SDS011;7019;50.766;4.474;2023-11-21T13:55:48;5.90;;;4.33;;
13897;SDS011;7019;50.766;4.474;2023-11-21T13:58:19;6.30;;;5.00;;
13897;SDS011;7019;50.766;4.474;2023-11-21T14:00:54;7.57;;;4.67;;
13897;SDS011;7019;50.766;4.474;2023-11-21T14:03:23;6.67;;;4.47;;
13897;SDS011;7019;50.766;4.474;2023-11-21T14:06:05;6.47;;;4.97;;
13897;SDS011;7019;50.766;4.474;2023-11-21T14:08:39;7.47;;;5.20;;
13897;SDS011;7019;50.766;4.474;2023-11-21T14:11:08;10.77;;;6.00;;
13897;SDS011;7019;50.766;4.474;2023-11-21T14:13:43;9.57;;;5.27;;
13897;SDS011;7019;50.766;4.474;2023-11-21T14:16:14;6.00;;;5.40;;
13897;SDS011;7019;50.766;4.474;2023-11-21T14:18:43;7.23;;;5.63;;
13897;SDS011;7019;50.766;4.474;2023-11-21T14:21:23;7.07;;;5.90;;
13897;SDS011;7019;50.766;4.474;2023-11-21T14:23:51;6.53;;;5.40;;
13897;SDS011;7019;50.766;4.474;2023-11-21T14:26:21;6.80;;;5.00;;
13897;SDS011;7019;50.766;4.474;2023-11-21T14:28:50;8.50;;;6.17;;
13897;SDS011;7019;50.766;4.474;2023-11-21T14:31:19;8.57;;;5.30;;
13897;SDS011;7019;50.766;4.474;2023-11-21T14:33:49;7.90;;;4.50;;
13897;SDS011;7019;50.766;4.474;2023-11-21T14:36:17;9.90;;;4.90;;
13897;SDS011;7019;50.766;4.474;2023-11-21T14:38:47;6.20;;;4.70;;
13897;SDS011;7019;50.766;4.474;2023-11-21T14:41:14;6.37;;;4.97;;
13897;SDS011;7019;50.766;4.474;2023-11-21T14:43:44;5.57;;;4.50;;
13897;SDS011;7019;50.766;4.474;2023-11-21T14:46:15;7.80;;;4.47;;